createdAt,value
2022-08-26T00:04:12.562Z,61.93
2022-08-26T00:07:23.035Z,60.92
2022-08-26T00:10:02.223Z,60.50
2022-08-26T00:16:17.729Z,60.69
2022-08-26T00:19:28.034Z,60.45
2022-08-26T00:22:20.222Z,61.09
2022-08-26T00:32:24.018Z,62.04
2022-08-26T00:35:33.614Z,62.91
2022-08-26T00:38:34.756Z,62.52
2022-08-26T00:41:54.215Z,62.09
2022-08-26T00:45:02.928Z,63.43
2022-08-26T00:48:30.889Z,63.03
2022-08-26T00:54:50.367Z,61.83
2022-08-26T00:58:14.716Z,61.72
2022-08-26T01:01:30.906Z,61.08
2022-08-26T01:04:36.340Z,61.46
2022-08-26T01:07:43.296Z,62.70
2022-08-26T01:10:51.543Z,63.28
2022-08-26T01:13:57.016Z,62.38
2022-08-26T01:17:16.867Z,63.32
2022-08-26T01:20:34.614Z,63.85
2022-08-26T01:23:37.021Z,63.59
2022-08-26T01:27:27.159Z,63.12
2022-08-26T01:41:04.397Z,63.08
2022-08-26T01:43:48.446Z,63.00
2022-08-26T01:46:17.233Z,63.83
2022-08-26T01:48:45.648Z,63.44
2022-08-26T01:51:15.781Z,63.78
2022-08-26T01:53:43.071Z,63.07
2022-08-26T01:56:14.767Z,63.14
2022-08-26T01:58:45.079Z,63.85
2022-08-26T02:01:12.208Z,64.14
2022-08-26T02:04:24.081Z,63.95
2022-08-26T02:06:52.377Z,64.77
2022-08-26T02:09:21.590Z,65.29
2022-08-26T02:11:48.611Z,65.47
2022-08-26T02:14:24.501Z,65.46
2022-08-26T02:16:55.169Z,65.50
2022-08-26T02:19:32.339Z,65.10
2022-08-26T02:22:03.279Z,65.13
2022-08-26T02:24:52.334Z,64.77
2022-08-26T02:27:23.676Z,64.64
2022-08-26T02:29:56.933Z,63.62
2022-08-26T02:32:24.135Z,64.02
2022-08-26T02:34:50.868Z,63.81
2022-08-26T02:37:17.824Z,64.83
2022-08-26T02:39:46.600Z,64.43
2022-08-26T02:42:14.613Z,63.94
2022-08-26T02:44:41.298Z,64.09
2022-08-26T02:47:08.434Z,64.28
2022-08-26T02:49:36.348Z,65.73
2022-08-26T02:52:03.689Z,65.54
2022-08-26T02:54:30.159Z,64.89
2022-08-26T02:56:56.651Z,64.47
2022-08-26T02:59:24.480Z,66.38
2022-08-26T03:01:51.598Z,67.36
2022-08-26T03:04:18.694Z,67.21
2022-08-26T03:06:47.065Z,67.71
2022-08-26T03:09:19.646Z,67.92
2022-08-26T03:11:47.203Z,68.20
2022-08-26T03:14:13.768Z,68.00
2022-08-26T03:16:40.677Z,67.50
2022-08-26T03:19:09.734Z,67.48
2022-08-26T03:21:37.853Z,66.48
2022-08-26T03:24:04.747Z,66.19
2022-08-26T03:26:31.261Z,65.59
2022-08-26T03:29:16.579Z,65.30
2022-08-26T03:31:43.253Z,65.98
2022-08-26T03:34:09.693Z,66.29
2022-08-26T03:36:38.715Z,66.34
2022-08-26T03:39:05.936Z,65.90
2022-08-26T03:41:34.729Z,66.02
2022-08-26T03:44:02.390Z,65.90
2022-08-26T03:46:33.095Z,66.62
2022-08-26T03:49:01.565Z,66.25
2022-08-26T03:51:28.121Z,66.21
2022-08-26T03:53:55.888Z,66.22
2022-08-26T03:56:23.717Z,66.37
2022-08-26T03:58:50.433Z,67.30
2022-08-26T04:01:17.640Z,67.21
2022-08-26T04:04:00.100Z,67.27
2022-08-26T04:06:33.306Z,67.75
2022-08-26T04:09:02.271Z,68.99
2022-08-26T04:11:32.170Z,69.23
2022-08-26T04:14:02.703Z,69.79
2022-08-26T04:16:29.886Z,70.36
2022-08-26T04:18:57.653Z,70.24
2022-08-26T04:21:25.887Z,70.65
2022-08-26T04:23:54.227Z,70.29
2022-08-26T04:26:23.183Z,69.45
2022-08-26T04:28:51.972Z,69.08
2022-08-26T04:31:19.816Z,68.48
2022-08-26T04:33:49.908Z,67.59
2022-08-26T04:36:17.815Z,67.22
2022-08-26T04:38:47.391Z,67.39
2022-08-26T04:41:15.249Z,68.14
2022-08-26T04:43:44.124Z,68.66
2022-08-26T04:46:13.034Z,68.94
2022-08-26T04:48:40.877Z,69.45
2022-08-26T04:51:08.018Z,69.28
2022-08-26T04:53:34.753Z,68.81
2022-08-26T04:56:01.806Z,68.40
2022-08-26T04:58:30.920Z,68.22
2022-08-26T05:00:58.328Z,67.92
2022-08-26T05:03:27.196Z,68.07
2022-08-26T05:05:58.260Z,67.92
2022-08-26T05:08:25.078Z,68.09
2022-08-26T05:10:56.083Z,70.02
2022-08-26T05:13:26.769Z,70.16
2022-08-26T05:15:54.328Z,70.12
2022-08-26T05:18:23.035Z,70.36
2022-08-26T05:20:54.885Z,70.30
2022-08-26T05:23:23.139Z,69.54
2022-08-26T05:25:54.681Z,69.42
2022-08-26T05:28:23.619Z,70.48
2022-08-26T05:30:51.062Z,70.47
2022-08-26T05:33:18.950Z,70.93
2022-08-26T05:35:46.876Z,70.32
2022-08-26T05:38:16.543Z,69.32
2022-08-26T05:40:47.324Z,68.10
2022-08-26T05:43:14.089Z,66.18
2022-08-26T05:45:48.413Z,64.73
2022-08-26T05:48:17.474Z,63.36
2022-08-26T05:50:48.208Z,63.63
2022-08-26T05:53:17.509Z,63.47
2022-08-26T05:55:52.414Z,64.01
2022-08-26T05:58:21.237Z,63.54
2022-08-26T06:01:22.323Z,62.94
2022-08-26T06:03:53.279Z,61.44
2022-08-26T06:06:27.324Z,60.64
2022-08-26T06:08:57.901Z,60.88
2022-08-26T06:11:26.841Z,60.20
2022-08-26T06:13:57.095Z,59.77
2022-08-26T06:16:27.092Z,58.39
2022-08-26T06:18:54.265Z,57.82
2022-08-26T06:21:27.357Z,56.99
2022-08-26T06:24:15.443Z,54.38
2022-08-26T06:26:50.760Z,52.41
2022-08-26T06:29:24.420Z,51.38
2022-08-26T06:31:52.998Z,50.54
2022-08-26T06:34:19.753Z,49.88
2022-08-26T06:36:47.353Z,49.18
2022-08-26T06:39:16.155Z,48.85
2022-08-26T06:41:44.816Z,48.31
2022-08-26T06:44:18.358Z,47.58
2022-08-26T06:46:45.546Z,47.15
2022-08-26T06:49:13.149Z,46.74
2022-08-26T06:51:40.890Z,46.57
2022-08-26T06:54:08.357Z,45.96
2022-08-26T06:56:41.603Z,45.51
2022-08-26T06:59:10.052Z,45.01
2022-08-26T07:01:44.771Z,44.93
2022-08-26T07:04:14.496Z,44.50
2022-08-26T07:06:46.994Z,43.87
2022-08-26T07:09:13.564Z,43.13
2022-08-26T07:11:41.013Z,43.40
2022-08-26T07:14:07.938Z,42.22
2022-08-26T07:16:35.826Z,42.17
2022-08-26T07:19:11.131Z,41.43
2022-08-26T07:21:40.209Z,41.04
2022-08-26T07:24:07.303Z,40.49
2022-08-26T07:26:33.803Z,40.08
2022-08-26T07:29:01.728Z,39.69
2022-08-26T07:31:37.376Z,39.38
2022-08-26T07:34:07.523Z,38.39
2022-08-26T07:36:34.799Z,38.10
2022-08-26T07:39:01.672Z,38.03
2022-08-26T07:43:56.630Z,37.61
2022-08-26T07:46:27.439Z,37.37
2022-08-26T07:48:58.035Z,36.61
2022-08-26T07:51:25.334Z,36.39
2022-08-26T07:53:52.912Z,36.46
2022-08-26T07:56:22.905Z,35.98
2022-08-26T07:58:51.569Z,36.12
2022-08-26T08:01:20.023Z,36.20
2022-08-26T08:03:50.519Z,35.71
2022-08-26T08:06:21.992Z,34.84
2022-08-26T08:08:48.447Z,34.87
2022-08-26T08:11:21.037Z,34.95
2022-08-26T08:13:48.120Z,34.83
2022-08-26T08:16:15.789Z,34.39
2022-08-26T08:18:42.265Z,34.31
2022-08-26T08:21:21.089Z,34.04
2022-08-26T08:23:48.797Z,34.19
2022-08-26T08:26:15.482Z,33.55
2022-08-26T08:28:43.560Z,33.95
2022-08-26T08:31:38.741Z,33.10
2022-08-26T08:34:05.760Z,33.43
2022-08-26T08:36:35.929Z,33.48
2022-08-26T08:39:02.914Z,33.28
2022-08-26T08:41:47.071Z,32.58
2022-08-26T08:44:20.333Z,33.13
2022-08-26T08:46:51.134Z,32.67
2022-08-26T08:49:18.229Z,32.26
2022-08-26T08:51:53.518Z,32.32
2022-08-26T08:54:22.869Z,33.81
2022-08-26T08:57:06.026Z,33.86
2022-08-26T08:59:38.519Z,34.68
2022-08-26T09:02:24.498Z,34.75
2022-08-26T09:05:03.006Z,34.72
2022-08-26T09:07:40.819Z,34.31
2022-08-26T09:10:25.648Z,35.46
2022-08-26T09:12:52.842Z,35.78
2022-08-26T09:15:28.571Z,35.72
2022-08-26T09:18:23.673Z,36.28
2022-08-26T09:20:58.283Z,37.66
2022-08-26T09:23:26.145Z,36.94
2022-08-26T09:25:56.476Z,36.08
2022-08-26T09:28:25.508Z,35.46
2022-08-26T09:31:27.526Z,34.38
2022-08-26T09:34:20.408Z,34.49
2022-08-26T09:36:51.305Z,34.44
2022-08-26T09:39:27.899Z,34.04
2022-08-26T09:42:10.548Z,34.82
2022-08-26T09:45:07.429Z,35.72
2022-08-26T09:47:41.384Z,36.13
2022-08-26T09:50:18.779Z,36.47
2022-08-26T09:52:45.533Z,36.93
2022-08-26T09:55:17.142Z,36.32
2022-08-26T09:57:46.512Z,35.89
2022-08-26T10:00:35.421Z,36.28
2022-08-26T10:03:23.243Z,35.81
2022-08-26T10:06:21.203Z,35.60
2022-08-26T10:08:54.697Z,35.90
2022-08-26T10:11:31.092Z,35.44
2022-08-26T10:14:07.760Z,36.36
2022-08-26T10:16:59.466Z,37.15
2022-08-26T10:19:56.148Z,37.20
2022-08-26T10:22:25.880Z,36.69
2022-08-26T10:24:57.348Z,35.93
2022-08-26T10:27:53.434Z,36.72
2022-08-26T10:30:23.612Z,35.61
2022-08-26T10:32:57.929Z,35.69
2022-08-26T10:35:24.605Z,36.07
2022-08-26T10:37:54.644Z,35.71
2022-08-26T10:40:35.386Z,35.79
2022-08-26T10:43:12.458Z,36.00
2022-08-26T10:45:47.042Z,37.01
2022-08-26T10:48:21.165Z,36.61
2022-08-26T10:50:49.637Z,35.49
2022-08-26T10:53:18.033Z,36.23
2022-08-26T10:56:15.598Z,37.06
2022-08-26T10:58:47.477Z,38.40
2022-08-26T11:01:44.062Z,38.15
2022-08-26T11:04:51.085Z,38.16
2022-08-26T11:07:35.449Z,38.34
2022-08-26T11:10:18.701Z,37.75
2022-08-26T11:12:45.466Z,37.18
2022-08-26T11:15:38.598Z,36.45
2022-08-26T11:18:11.522Z,36.59
2022-08-26T11:20:46.054Z,36.55
2022-08-26T11:23:13.714Z,35.52
2022-08-26T11:26:04.379Z,35.95
2022-08-26T11:28:35.365Z,36.88
2022-08-26T11:31:04.567Z,38.03
2022-08-26T11:33:50.984Z,38.72
2022-08-26T11:36:32.907Z,38.47
2022-08-26T11:39:02.151Z,38.09
2022-08-26T11:41:31.229Z,38.84
2022-08-26T11:43:59.366Z,38.28
2022-08-26T11:46:35.689Z,39.11
2022-08-26T11:49:05.793Z,39.24
2022-08-26T11:51:37.036Z,40.26
2022-08-26T11:54:16.656Z,40.55
2022-08-26T11:56:53.487Z,40.58
2022-08-26T12:02:02.901Z,40.29
2022-08-26T12:04:37.503Z,40.89
2022-08-26T12:07:06.532Z,40.95
2022-08-26T12:09:37.973Z,40.11
2022-08-26T12:12:12.175Z,39.91
2022-08-26T12:14:39.734Z,39.47
2022-08-26T12:17:18.547Z,39.27
2022-08-26T12:19:45.819Z,39.04
2022-08-26T12:22:29.134Z,38.67
2022-08-26T12:24:58.982Z,38.11
2022-08-26T12:27:34.717Z,37.89
2022-08-26T12:30:06.797Z,36.96
2022-08-26T12:32:36.060Z,36.31
2022-08-26T12:37:37.286Z,37.20
2022-08-26T12:40:41.095Z,37.09
2022-08-26T12:43:08.978Z,37.13
2022-08-26T12:45:43.058Z,36.89
2022-08-26T12:48:26.898Z,36.39
2022-08-26T12:50:53.633Z,36.15
2022-08-26T12:53:19.985Z,36.29
2022-08-26T12:55:50.248Z,35.57
2022-08-26T12:58:16.817Z,35.41
2022-08-26T13:00:44.801Z,36.57
2022-08-26T13:03:45.889Z,36.85
2022-08-26T13:06:31.217Z,36.91
2022-08-26T13:09:01.200Z,37.05
2022-08-26T13:11:31.457Z,37.14
2022-08-26T13:14:01.811Z,37.02
2022-08-26T13:16:29.193Z,37.11
2022-08-26T13:19:01.620Z,36.41
2022-08-26T13:21:47.651Z,37.47
2022-08-26T13:24:16.689Z,37.09
2022-08-26T13:26:44.810Z,36.76
2022-08-26T13:29:12.710Z,36.94
2022-08-26T13:31:41.730Z,36.06
2022-08-26T13:34:10.647Z,36.39
2022-08-26T13:36:37.170Z,36.73
2022-08-26T13:39:04.577Z,36.77
2022-08-26T13:41:31.960Z,36.71
2022-08-26T13:43:59.615Z,38.30
2022-08-26T13:46:27.207Z,38.15
2022-08-26T13:48:54.506Z,37.79
2022-08-26T13:51:22.550Z,40.32
2022-08-26T13:53:50.367Z,41.55
2022-08-26T13:56:17.048Z,42.66
2022-08-26T13:58:43.442Z,43.23
2022-08-26T14:01:13.531Z,43.53
2022-08-26T14:03:40.090Z,43.13
2022-08-26T14:06:06.606Z,43.12
2022-08-26T14:08:33.207Z,44.26
2022-08-26T14:10:59.797Z,45.64
2022-08-26T14:13:26.556Z,49.62
2022-08-26T14:15:53.603Z,51.28
2022-08-26T14:18:26.334Z,52.07
2022-08-26T14:20:55.155Z,52.09
2022-08-26T14:23:22.500Z,53.34
2022-08-26T14:25:49.193Z,56.51
2022-08-26T14:28:15.914Z,56.64
2022-08-26T14:30:44.280Z,57.50
2022-08-26T14:33:13.024Z,57.80
2022-08-26T14:35:40.053Z,58.54
2022-08-26T14:38:14.921Z,61.24
2022-08-26T14:40:44.547Z,66.63
2022-08-26T14:43:15.074Z,65.09
2022-08-26T14:45:45.078Z,66.14
2022-08-26T14:48:11.725Z,64.53
2022-08-26T14:50:38.284Z,63.98
2022-08-26T14:53:23.444Z,63.04
2022-08-26T14:55:50.433Z,64.30
2022-08-26T14:58:17.024Z,65.31
2022-08-26T15:00:44.641Z,66.21
2022-08-26T15:03:11.224Z,66.18
2022-08-26T15:05:39.782Z,66.17
2022-08-26T15:08:10.296Z,66.49
2022-08-26T15:10:37.277Z,68.40
2022-08-26T15:13:03.813Z,68.40
2022-08-26T15:15:30.326Z,66.92
2022-08-26T15:17:57.073Z,63.12
2022-08-26T15:20:23.725Z,61.25
2022-08-26T15:22:50.544Z,61.42
2022-08-26T15:25:17.909Z,61.62
2022-08-26T15:27:45.546Z,62.37
2022-08-26T15:30:12.343Z,62.23
2022-08-26T15:32:39.125Z,61.91
2022-08-26T15:35:09.012Z,60.97
2022-08-26T15:37:36.527Z,60.28
2022-08-26T15:40:03.875Z,60.80
2022-08-26T15:42:30.488Z,61.16
2022-08-26T15:44:56.969Z,61.35
2022-08-26T15:47:23.680Z,61.26
2022-08-26T15:49:50.408Z,62.65
2022-08-26T15:52:17.584Z,62.25
2022-08-26T15:54:44.312Z,62.90
2022-08-26T15:57:12.342Z,63.35
2022-08-26T15:59:40.110Z,62.99
2022-08-26T16:02:07.520Z,63.52
2022-08-26T16:04:34.051Z,63.97
2022-08-26T16:07:00.927Z,63.70
2022-08-26T16:09:28.666Z,64.40
2022-08-26T16:11:56.119Z,64.65
2022-08-26T16:14:23.764Z,64.55
2022-08-26T16:16:50.527Z,64.41
2022-08-26T16:19:17.305Z,64.97
2022-08-26T16:21:44.555Z,64.63
2022-08-26T16:24:11.863Z,65.37
2022-08-26T16:26:40.821Z,65.52
2022-08-26T16:29:12.227Z,65.76
2022-08-26T16:31:38.868Z,66.14
2022-08-26T16:34:07.248Z,66.60
2022-08-26T16:36:35.030Z,66.93
2022-08-26T16:39:01.718Z,66.80
2022-08-26T16:41:29.972Z,67.22
2022-08-26T16:43:57.096Z,69.24
2022-08-26T16:46:26.656Z,68.59
2022-08-26T16:48:58.354Z,67.90
2022-08-26T16:51:27.081Z,68.93
2022-08-26T16:53:55.099Z,69.09
2022-08-26T16:56:27.720Z,68.70
2022-08-26T16:59:02.839Z,69.37
2022-08-26T17:01:29.573Z,69.46
2022-08-26T17:03:56.835Z,69.53
2022-08-26T17:06:23.636Z,70.50
2022-08-26T17:08:51.589Z,69.94
2022-08-26T17:11:18.571Z,70.42
2022-08-26T17:13:45.429Z,69.83
2022-08-26T17:16:13.022Z,69.05
2022-08-26T17:18:39.557Z,68.42
2022-08-26T17:21:10.120Z,68.15
2022-08-26T17:23:37.262Z,68.19
2022-08-26T17:26:03.788Z,67.51
2022-08-26T17:28:30.464Z,67.25
2022-08-26T17:30:57.960Z,66.60
2022-08-26T17:33:25.412Z,66.59
2022-08-26T17:35:52.906Z,65.85
2022-08-26T17:38:21.052Z,66.22
2022-08-26T17:40:47.949Z,65.47
2022-08-26T17:43:14.372Z,68.09
2022-08-26T17:45:41.653Z,69.13
2022-08-26T17:48:09.609Z,69.47
2022-08-26T17:50:38.659Z,69.45
2022-08-26T17:53:05.199Z,70.31
2022-08-26T17:55:31.730Z,69.89
2022-08-26T17:57:59.727Z,69.69
2022-08-26T18:00:27.112Z,69.50
2022-08-26T18:02:54.703Z,70.02
2022-08-26T18:05:21.798Z,69.79
2022-08-26T18:07:48.510Z,69.47
2022-08-26T18:10:17.113Z,69.27
2022-08-26T18:12:43.580Z,68.43
2022-08-26T18:15:11.129Z,67.80
2022-08-26T18:17:41.664Z,66.87
2022-08-26T18:20:14.968Z,68.14
2022-08-26T18:22:41.808Z,69.17
2022-08-26T18:25:09.186Z,69.83
2022-08-26T18:27:36.571Z,69.80
2022-08-26T18:30:13.406Z,70.10
2022-08-26T18:32:42.525Z,70.53
2022-08-26T18:35:09.732Z,70.43
2022-08-26T18:37:37.225Z,70.48
2022-08-26T18:40:09.049Z,70.54
2022-08-26T18:42:36.086Z,70.98
2022-08-26T18:45:04.251Z,69.89
2022-08-26T18:47:31.786Z,68.40
2022-08-26T18:49:58.180Z,68.87
2022-08-26T18:52:24.937Z,67.84
2022-08-26T18:54:51.493Z,68.77
2022-08-26T18:57:17.977Z,68.51
2022-08-26T18:59:44.461Z,68.83
2022-08-26T19:02:11.119Z,69.04
2022-08-26T19:04:38.932Z,68.53
2022-08-26T19:07:06.428Z,68.70
2022-08-26T19:09:34.157Z,68.18
2022-08-26T19:12:04.047Z,68.07
2022-08-26T19:15:34.019Z,67.77
2022-08-26T19:18:00.768Z,68.40
2022-08-26T19:20:27.832Z,68.66
2022-08-26T19:27:20.777Z,67.98
2022-08-26T19:29:47.923Z,67.65
2022-08-26T19:33:11.070Z,67.29
2022-08-26T19:35:37.672Z,67.28
2022-08-26T19:38:05.397Z,67.75
2022-08-26T19:40:35.008Z,68.19
2022-08-26T19:43:02.050Z,68.10
2022-08-26T20:02:19.221Z,69.15
2022-08-26T20:04:45.872Z,69.80
2022-08-26T20:07:18.597Z,69.61
2022-08-26T20:09:46.372Z,70.63
2022-08-26T20:12:13.148Z,69.89
2022-08-26T20:14:39.737Z,69.55
2022-08-26T20:17:06.881Z,69.02
2022-08-26T20:19:52.239Z,68.88
2022-08-26T20:22:19.614Z,68.63
2022-08-26T20:24:46.858Z,68.65
2022-08-26T20:27:13.449Z,68.47
2022-08-26T20:29:41.749Z,67.96
2022-08-26T20:32:09.399Z,68.27
2022-08-26T20:34:37.074Z,68.91
2022-08-26T20:37:03.624Z,69.17
2022-08-26T20:39:30.108Z,69.13
2022-08-26T20:41:57.603Z,70.53
2022-08-26T20:44:24.745Z,71.84
2022-08-26T20:46:51.442Z,72.06
2022-08-26T20:49:18.559Z,72.33
2022-08-26T20:51:50.734Z,72.50
2022-08-26T20:54:19.296Z,72.65
2022-08-26T20:56:46.602Z,72.35
2022-08-26T20:59:14.197Z,72.68
2022-08-26T21:01:42.154Z,73.20
2022-08-26T21:04:12.954Z,73.23
2022-08-26T21:06:39.959Z,73.30
2022-08-26T21:09:11.163Z,73.57
2022-08-26T21:11:39.587Z,73.14
2022-08-26T21:14:16.660Z,73.85
2022-08-26T21:16:45.164Z,73.52
2022-08-26T21:19:13.787Z,73.48
2022-08-26T21:21:40.877Z,73.37
2022-08-26T21:24:08.229Z,73.42
2022-08-26T21:26:34.988Z,73.76
2022-08-26T21:29:02.463Z,73.88
2022-08-26T21:31:31.655Z,73.29
2022-08-26T21:33:58.725Z,73.42
2022-08-26T21:36:25.188Z,72.79
2022-08-26T21:38:51.740Z,72.74
2022-08-26T21:41:22.033Z,72.82
2022-08-26T21:43:50.482Z,72.94
2022-08-26T21:46:20.152Z,73.82
2022-08-26T21:48:51.074Z,73.97
2022-08-26T21:51:20.891Z,73.58
2022-08-26T21:53:47.585Z,74.35
2022-08-26T21:56:16.395Z,74.98
2022-08-26T21:58:43.161Z,75.00
2022-08-26T22:01:15.594Z,74.79
2022-08-26T22:03:47.530Z,75.31
2022-08-26T22:06:16.379Z,75.75
2022-08-26T22:08:42.805Z,75.82
2022-08-26T22:11:10.314Z,75.67
2022-08-26T22:13:39.008Z,76.48
2022-08-26T22:16:06.795Z,76.60
2022-08-26T22:18:34.517Z,77.17
2022-08-26T22:21:04.658Z,77.61
2022-08-26T22:23:31.671Z,78.11
2022-08-26T22:25:58.803Z,77.02
2022-08-26T22:28:26.197Z,77.19
2022-08-26T22:30:52.930Z,76.47
2022-08-26T22:33:19.732Z,76.92
2022-08-26T22:35:48.881Z,76.45
2022-08-26T22:38:15.583Z,75.91
2022-08-26T22:40:48.354Z,76.16
2022-08-26T22:43:15.294Z,76.43
2022-08-26T22:45:44.129Z,76.46
2022-08-26T22:48:12.620Z,76.07
2022-08-26T22:50:39.045Z,76.74
2022-08-26T22:53:05.530Z,77.83
2022-08-26T22:55:32.012Z,77.33
2022-08-26T22:57:58.878Z,77.72
2022-08-26T23:00:32.184Z,77.78
2022-08-26T23:02:59.657Z,78.15
2022-08-26T23:05:26.749Z,78.92
2022-08-26T23:07:53.982Z,79.33
2022-08-26T23:10:20.560Z,80.28
2022-08-26T23:12:47.118Z,80.22
2022-08-26T23:15:13.551Z,80.02
2022-08-26T23:17:40.054Z,79.90
2022-08-26T23:20:10.318Z,80.37
2022-08-26T23:22:37.481Z,80.95
2022-08-26T23:25:07.672Z,79.98
2022-08-26T23:27:41.246Z,80.65
2022-08-26T23:30:12.150Z,80.21
2022-08-26T23:32:38.593Z,80.54
2022-08-26T23:35:06.017Z,80.91
2022-08-26T23:37:36.562Z,80.76
2022-08-26T23:40:10.572Z,81.53
2022-08-26T23:42:37.269Z,81.80
2022-08-26T23:45:06.270Z,80.82
2022-08-26T23:47:33.125Z,80.85
2022-08-26T23:49:59.769Z,80.03
2022-08-26T23:52:45.163Z,79.80
2022-08-26T23:55:13.312Z,79.85
2022-08-26T23:57:40.008Z,79.46
